createdAt,value
2022-09-07T00:00:40.749Z,21.10
2022-09-07T00:03:06.881Z,20.90
2022-09-07T00:05:33.028Z,21.00
2022-09-07T00:07:59.017Z,21.00
2022-09-07T00:10:25.023Z,21.10
2022-09-07T00:12:51.051Z,21.10
2022-09-07T00:15:17.024Z,21.10
2022-09-07T00:17:43.932Z,21.10
2022-09-07T00:20:10.087Z,21.20
2022-09-07T00:22:36.101Z,21.20
2022-09-07T00:25:02.084Z,21.10
2022-09-07T00:27:28.804Z,21.00
2022-09-07T00:29:55.074Z,20.90
2022-09-07T00:32:22.715Z,20.60
2022-09-07T00:34:49.854Z,20.50
2022-09-07T00:37:16.136Z,20.60
2022-09-07T00:42:23.265Z,21.00
2022-09-07T02:50:49.209Z,20.00
2022-09-07T02:53:15.206Z,19.90
2022-09-07T02:55:42.031Z,20.00
2022-09-07T02:58:08.003Z,19.50
2022-09-07T03:00:33.988Z,19.60
2022-09-07T03:03:00.169Z,19.80
2022-09-07T03:05:26.191Z,19.80
2022-09-07T03:07:53.076Z,19.50
2022-09-07T03:10:19.047Z,19.50
2022-09-07T03:12:45.060Z,19.50
2022-09-07T03:15:11.022Z,19.60
2022-09-07T03:17:37.801Z,19.60
2022-09-07T03:20:03.789Z,19.70
2022-09-07T03:22:29.772Z,19.90
2022-09-07T03:24:55.769Z,19.80
2022-09-07T03:27:22.489Z,19.50
2022-09-07T03:29:48.497Z,19.60
2022-09-07T03:32:14.467Z,19.60
2022-09-07T03:34:41.443Z,19.60
2022-09-07T03:37:07.464Z,19.30
2022-09-07T03:39:33.474Z,19.50
2022-09-07T03:42:00.336Z,19.60
2022-09-07T03:44:26.301Z,19.60
2022-09-07T03:46:53.071Z,19.80
2022-09-07T03:49:19.120Z,19.80
2022-09-07T03:51:45.106Z,19.80
2022-09-07T03:54:11.865Z,19.70
2022-09-07T03:56:37.871Z,19.70
2022-09-07T03:59:03.872Z,19.50
2022-09-07T04:01:30.715Z,19.10
2022-09-07T04:04:01.804Z,19.40
2022-09-07T04:06:28.278Z,19.50
2022-09-07T04:08:54.264Z,19.40
2022-09-07T04:11:20.311Z,19.00
2022-09-07T04:13:46.308Z,18.90
2022-09-07T04:16:12.993Z,19.20
2022-09-07T04:18:38.989Z,19.30
2022-09-07T04:21:04.989Z,19.40
2022-09-07T04:23:31.677Z,19.40
2022-09-07T04:25:57.664Z,19.30
2022-09-07T04:28:24.600Z,19.30
2022-09-07T04:30:51.340Z,19.30
2022-09-07T04:33:17.390Z,19.40
2022-09-07T04:35:44.075Z,19.50
2022-09-07T04:38:10.123Z,19.50
2022-09-07T04:40:36.899Z,19.30
2022-09-07T04:43:02.876Z,19.50
2022-09-07T04:45:28.876Z,19.40
2022-09-07T04:47:55.651Z,19.50
2022-09-07T04:50:22.830Z,19.60
2022-09-07T04:52:48.831Z,19.60
2022-09-07T04:55:14.837Z,19.70
2022-09-07T04:57:41.555Z,19.50
2022-09-07T05:00:07.543Z,19.60
2022-09-07T05:02:33.576Z,19.50
2022-09-07T05:05:02.754Z,19.40
2022-09-07T05:07:29.078Z,19.50
2022-09-07T05:09:55.048Z,19.60
2022-09-07T05:12:21.932Z,19.80
2022-09-07T05:14:48.585Z,20.00
2022-09-07T05:17:14.593Z,19.80
2022-09-07T05:19:41.550Z,19.80
2022-09-07T05:22:07.573Z,19.90
2022-09-07T05:24:33.612Z,20.20
2022-09-07T05:26:59.579Z,20.30
2022-09-07T05:32:13.494Z,20.50
2022-09-07T05:34:39.780Z,20.60
2022-09-07T05:37:06.031Z,20.70
2022-09-07T05:39:32.421Z,19.90
2022-09-07T05:41:59.486Z,20.10
2022-09-07T07:44:11.897Z,22.60
2022-09-07T07:46:37.897Z,22.80
2022-09-07T07:49:04.679Z,23.00
2022-09-07T07:51:30.881Z,23.10
2022-09-07T07:53:57.116Z,23.00
2022-09-07T07:56:24.238Z,23.30
2022-09-07T07:58:50.196Z,23.40
2022-09-07T08:01:16.529Z,23.50
2022-09-07T08:03:42.993Z,23.00
2022-09-07T08:06:09.797Z,23.10
2022-09-07T08:08:35.733Z,23.40
2022-09-07T08:11:01.703Z,23.30
2022-09-07T08:13:27.739Z,23.40
2022-09-07T08:15:53.712Z,23.60
2022-09-07T08:18:20.589Z,23.60
2022-09-07T08:20:46.513Z,23.50
2022-09-07T08:23:13.325Z,23.60
2022-09-07T08:25:39.306Z,23.70
2022-09-07T08:28:05.259Z,23.80
2022-09-07T08:30:32.101Z,23.80
2022-09-07T08:32:58.356Z,23.80
2022-09-07T08:35:24.321Z,23.60
2022-09-07T08:37:50.262Z,23.50
2022-09-07T08:40:17.038Z,23.70
2022-09-07T08:42:43.136Z,23.50
2022-09-07T08:45:09.076Z,23.50
2022-09-07T08:47:35.939Z,23.40
2022-09-07T08:50:01.908Z,23.30
2022-09-07T08:52:27.884Z,23.80
2022-09-07T08:54:54.525Z,23.80
2022-09-07T08:57:21.036Z,24.20
2022-09-07T08:59:47.303Z,24.30
2022-09-07T09:02:31.750Z,24.00
2022-09-07T09:05:16.690Z,24.10
2022-09-07T09:07:44.548Z,24.50
2022-09-07T09:10:10.531Z,23.90
2022-09-07T09:12:37.814Z,24.20
2022-09-07T09:15:03.952Z,24.10
2022-09-07T09:17:29.951Z,24.10
2022-09-07T09:19:56.766Z,24.30
2022-09-07T09:22:22.889Z,24.20
2022-09-07T09:24:48.850Z,24.50
2022-09-07T09:27:15.597Z,24.50
2022-09-07T09:29:41.546Z,24.70
2022-09-07T09:32:07.479Z,24.80
2022-09-07T09:34:35.201Z,25.10
2022-09-07T09:37:01.280Z,25.40
2022-09-07T09:39:27.364Z,25.50
2022-09-07T09:41:53.396Z,25.40
2022-09-07T09:44:20.073Z,25.70
2022-09-07T09:46:46.220Z,25.90
2022-09-07T09:49:12.794Z,25.80
2022-09-07T09:54:24.713Z,25.90
2022-09-07T09:56:50.646Z,26.10
2022-09-07T10:04:49.317Z,26.10
2022-09-07T10:07:16.045Z,26.10
2022-09-07T10:09:42.044Z,26.50
2022-09-07T10:12:08.549Z,26.50
2022-09-07T10:14:35.087Z,26.30
2022-09-07T10:17:02.743Z,26.70
2022-09-07T10:19:28.985Z,26.10
2022-09-07T10:21:56.479Z,26.40
2022-09-07T10:24:22.790Z,26.20
2022-09-07T10:26:49.537Z,26.80
2022-09-07T10:29:16.196Z,26.30
2022-09-07T10:31:43.739Z,26.30
2022-09-07T12:32:58.353Z,28.80
2022-09-07T12:35:25.399Z,28.50
2022-09-07T12:37:51.414Z,28.60
2022-09-07T12:40:17.427Z,28.80
2022-09-07T12:42:44.234Z,28.50
2022-09-07T12:45:10.181Z,29.00
2022-09-07T12:47:36.871Z,29.60
2022-09-07T12:50:02.923Z,29.50
2022-09-07T12:52:31.505Z,29.40
2022-09-07T12:55:26.015Z,29.50
2022-09-07T12:57:43.530Z,29.60
2022-09-07T13:00:09.482Z,29.80
2022-09-07T13:02:36.267Z,29.60
2022-09-07T13:05:02.277Z,29.20
2022-09-07T13:07:28.200Z,29.00
2022-09-07T13:09:55.027Z,29.10
2022-09-07T13:15:12.637Z,29.10
2022-09-07T13:17:43.849Z,29.20
2022-09-07T13:20:10.420Z,29.20
2022-09-07T13:22:37.134Z,29.10
2022-09-07T13:25:03.206Z,29.10
2022-09-07T13:27:29.237Z,28.60
2022-09-07T13:29:55.377Z,27.90
2022-09-07T13:32:21.933Z,27.60
2022-09-07T13:34:47.914Z,27.30
2022-09-07T13:37:14.427Z,27.40
2022-09-07T13:39:40.416Z,27.30
2022-09-07T13:42:06.400Z,27.30
2022-09-07T13:44:32.375Z,27.10
2022-09-07T13:46:58.347Z,27.10
2022-09-07T13:49:24.271Z,26.70
2022-09-07T13:51:50.933Z,26.90
2022-09-07T13:54:16.895Z,26.80
2022-09-07T13:56:42.906Z,26.90
2022-09-07T13:59:08.874Z,27.10
2022-09-07T14:01:35.630Z,27.30
2022-09-07T14:04:01.963Z,27.10
2022-09-07T14:06:27.898Z,27.50
2022-09-07T14:08:55.092Z,27.70
2022-09-07T14:11:21.047Z,27.90
2022-09-07T14:13:46.983Z,27.60
2022-09-07T14:16:12.957Z,26.90
2022-09-07T14:18:38.923Z,25.60
2022-09-07T14:21:04.948Z,24.90
2022-09-07T14:23:30.987Z,24.00
2022-09-07T14:28:43.753Z,23.60
2022-09-07T14:31:09.775Z,23.30
2022-09-07T14:33:35.773Z,23.00
2022-09-07T14:36:17.792Z,22.40
2022-09-07T14:39:04.257Z,21.80
2022-09-07T14:41:30.547Z,21.50
2022-09-07T14:43:57.117Z,21.50
2022-09-07T14:46:23.269Z,21.50
2022-09-07T14:48:49.276Z,21.60
2022-09-07T14:51:30.390Z,21.10
2022-09-07T14:54:01.226Z,20.80
2022-09-07T14:56:27.215Z,21.20
2022-09-07T14:58:53.168Z,21.40
2022-09-07T15:04:05.200Z,21.70
2022-09-07T15:09:17.714Z,22.60
2022-09-07T15:11:45.428Z,22.70
2022-09-07T15:14:11.700Z,22.70
2022-09-07T15:16:39.194Z,22.60
2022-09-07T15:19:05.463Z,23.10
2022-09-07T15:21:32.150Z,23.30
2022-09-07T15:23:58.236Z,23.30
2022-09-07T17:33:33.749Z,22.30
2022-09-07T17:35:59.692Z,22.20
2022-09-07T17:41:11.661Z,21.90
2022-09-07T17:43:39.301Z,22.00
2022-09-07T17:46:07.838Z,21.50
2022-09-07T17:48:34.982Z,21.40
2022-09-07T17:51:01.044Z,21.50
2022-09-07T17:53:27.037Z,21.30
2022-09-07T17:55:52.981Z,21.30
2022-09-07T17:58:19.008Z,21.30
2022-09-07T18:00:45.061Z,21.20
2022-09-07T18:03:12.159Z,21.20
2022-09-07T18:05:38.142Z,21.30
2022-09-07T18:08:04.087Z,21.30
2022-09-07T18:11:45.105Z,21.50
2022-09-07T18:13:18.052Z,21.40
2022-09-07T18:15:44.160Z,21.70
2022-09-07T18:18:10.132Z,21.80
2022-09-07T18:20:36.080Z,21.70
2022-09-07T18:23:02.059Z,21.60
2022-09-07T18:25:28.037Z,21.70
2022-09-07T18:30:41.402Z,21.50
2022-09-07T18:33:07.371Z,21.40
2022-09-07T18:35:34.177Z,21.30
2022-09-07T18:38:01.772Z,21.00
2022-09-07T18:40:27.818Z,20.90
2022-09-07T18:42:53.781Z,21.00
2022-09-07T18:45:27.891Z,21.20
2022-09-07T18:47:54.992Z,21.30
2022-09-07T18:50:21.634Z,21.10
2022-09-07T18:52:59.163Z,21.00
2022-09-07T18:55:30.387Z,21.20
2022-09-07T18:57:56.366Z,21.20
2022-09-07T19:00:22.325Z,21.30
2022-09-07T19:02:48.302Z,21.20
2022-09-07T19:08:01.803Z,21.10
2022-09-07T19:10:27.736Z,21.00
2022-09-07T19:12:54.605Z,21.00
2022-09-07T19:15:20.741Z,21.30
2022-09-07T19:17:46.742Z,21.20
2022-09-07T19:20:13.465Z,21.30
2022-09-07T19:22:39.467Z,21.20
2022-09-07T19:25:05.434Z,20.90
2022-09-07T19:27:31.366Z,20.70
2022-09-07T19:29:58.080Z,20.80
2022-09-07T19:32:24.032Z,20.70
2022-09-07T19:34:50.009Z,20.70
2022-09-07T19:37:16.841Z,20.60
2022-09-07T19:39:42.845Z,20.30
2022-09-07T19:42:08.851Z,20.20
2022-09-07T19:44:35.538Z,20.30
2022-09-07T19:47:01.652Z,20.50
2022-09-07T19:49:27.663Z,20.70
2022-09-07T19:51:54.546Z,20.50
2022-09-07T19:54:20.518Z,20.40
2022-09-07T19:56:46.545Z,20.50
2022-09-07T19:59:13.366Z,20.50
2022-09-07T20:01:39.310Z,20.70
2022-09-07T20:04:05.785Z,20.70
2022-09-07T20:06:32.663Z,20.90
2022-09-07T20:08:58.649Z,20.80
2022-09-07T20:11:24.939Z,20.90
2022-09-07T20:13:51.221Z,20.90
2022-09-07T20:16:17.565Z,20.80
2022-09-07T20:18:44.847Z,20.70
2022-09-07T20:21:11.104Z,20.20
2022-09-07T20:26:14.196Z,20.60
2022-09-07T22:22:43.399Z,19.70
2022-09-07T22:25:09.351Z,19.60
2022-09-07T22:27:36.217Z,19.10
2022-09-07T22:30:02.224Z,19.10
2022-09-07T22:32:28.209Z,19.30
2022-09-07T22:34:54.765Z,19.10
2022-09-07T22:37:20.718Z,19.20
2022-09-07T22:39:46.748Z,19.40
2022-09-07T22:42:12.841Z,19.40
2022-09-07T22:44:38.805Z,19.50
2022-09-07T22:47:05.183Z,19.50
2022-09-07T22:49:31.136Z,19.50
2022-09-07T22:51:57.106Z,18.90
2022-09-07T22:54:23.813Z,18.80
2022-09-07T22:56:49.796Z,19.10
2022-09-07T22:59:15.726Z,19.00
2022-09-07T23:01:42.523Z,18.80
2022-09-07T23:04:08.661Z,18.70
2022-09-07T23:06:35.639Z,19.00
2022-09-07T23:09:01.644Z,18.60
2022-09-07T23:11:27.630Z,18.80
2022-09-07T23:13:53.607Z,19.00
2022-09-07T23:16:19.616Z,19.10
2022-09-07T23:18:46.258Z,18.90
2022-09-07T23:21:12.180Z,18.80
2022-09-07T23:23:38.145Z,18.70
2022-09-07T23:26:04.794Z,18.70
2022-09-07T23:28:30.761Z,18.50
2022-09-07T23:30:56.778Z,18.70
2022-09-07T23:33:22.738Z,18.70
2022-09-07T23:35:48.692Z,18.60
2022-09-07T23:38:14.624Z,18.90
2022-09-07T23:40:41.223Z,19.00
2022-09-07T23:43:07.217Z,19.00
2022-09-07T23:45:33.148Z,18.40
2022-09-07T23:48:00.118Z,18.40
2022-09-07T23:50:26.095Z,18.50
2022-09-07T23:52:52.088Z,18.60
2022-09-07T23:55:18.039Z,18.30
2022-09-07T23:57:44.674Z,18.50
